Nearby METAR Reports

 

KDWH - Houston/Dw Hooks, Texas, USA
Distance from station: WNW 3mi, 6km
Updated: 06/27/2019 2:53am
Mist, Clear
Mist, Clear
 Wind from calm
Wind: Calm
Temperature: 73°F , 23°C
Dew Point: 72°F , 22°C
Humidity: 94%
Barometer: 30.13 inHg , 1020.3 hPa
Summary: Mist
Clouds: Clear
Visibility: 5 miles , 8 km
2019/06/27 07:53 KDWH 270753Z AUTO 00000KT 5SM BR CLR 23/22 A3013 RMK AO2 SLP199 T02330222
KIAH - Houston/Intnl, Texas, USA
Distance from station: ESE 9mi, 14km
Updated: 06/27/2019 3:13am
Mostly cloudy
Mostly cloudy
 Wind from NE
Wind: NE 3 mph , 6 km/h
Temperature: 75°F , 24°C
Dew Point: 75°F , 24°C
Humidity: 100%
Barometer: 30.12 inHg , 1020 hPa
Clouds: Mostly cloudy
Visibility: 8 miles , 13 km
Cloud details: Few Clouds 500 ft
Few Clouds 1800 ft
Mostly cloudy 18000 ft
2019/06/27 08:13 KIAH 270813Z 05003KT 8SM FEW005 FEW018 BKN180 24/24 A3012 RMK AO2 T02440244
 
KCXO - Conroe, Texas, USA
Distance from station: NNE 21mi, 34km
Updated: 06/27/2019 2:53am
Overcast
Overcast
 Wind from calm
Wind: Calm
Temperature: 73°F , 23°C
Dew Point: 72°F , 22°C
Humidity: 94%
Barometer: 30.14 inHg , 1020.7 hPa
Clouds: Overcast
Visibility: 7 miles , 11 km
Cloud details: Partly cloudy 300 ft
Overcast 2000 ft
2019/06/27 07:53 KCXO 270753Z AUTO 00000KT 7SM SCT003 OVC020 23/22 A3014 RMK AO2 SLP202 T02280222
KMCJ - Houston/Univ, Texas, USA
Distance from station: SSE 24mi, 39km
Updated: 06/27/2019 3:15am
Mist, Clear
Mist, Clear
 Wind from calm
Wind: Calm
Temperature: 79°F , 26°C
Dew Point: 77°F , 25°C
Humidity: 94%
Barometer: 30.11 inHg , 1019.6 hPa
Summary: Mist
Clouds: Clear
Visibility: 6 miles , 10 km
2019/06/27 08:15 KMCJ 270815Z AUTO 00000KT 6SM BR CLR 26/25 A3011 RMK A01
 
KTME - Houston Exec, Texas, USA
Distance from station: SW 30mi, 48km
Updated: 06/27/2019 3:15am
Mist, Few clouds
Mist, Few clouds
 Wind from calm
Wind: Calm
Temperature: 75°F , 24°C
Dew Point: 75°F , 24°C
Humidity: 100%
Barometer: 30.13 inHg , 1020.3 hPa
Summary: Mist
Clouds: Few Clouds
Visibility: 2 miles , 3 km
Cloud details: Few Clouds 1900 ft
2019/06/27 08:15 KTME 270815Z AUTO 00000KT 2SM BR FEW019 24/24 A3013 RMK AO2
KHOU - Houston/Hobby, Texas, USA
Distance from station: SSE 32mi, 51km
Updated: 06/27/2019 2:53am
Mostly cloudy
Mostly cloudy
 Wind from E
Wind: E 3 mph , 6 km/h
Temperature: 79°F , 26°C
Dew Point: 75°F , 24°C
Humidity: 89%
Barometer: 30.12 inHg , 1020 hPa
Clouds: Mostly cloudy
Visibility: 9 miles , 14 km
Cloud details: Partly cloudy 20000 ft
Mostly cloudy 25000 ft
2019/06/27 07:53 KHOU 270753Z 09003KT 9SM SCT200 BKN250 26/24 A3012 RMK AO2 SLP201 T02610244
 
KSGR - Houston/Sugar La, Texas, USA
Distance from station: SSW 32mi, 51km
Updated: 06/27/2019 2:53am
Few Clouds
Few Clouds
 Wind from ESE
Wind: ESE 3 mph , 6 km/h
Temperature: 79°F , 26°C
Dew Point: 79°F , 26°C
Humidity: 100%
Barometer: 30.11 inHg , 1019.6 hPa
Clouds: Few Clouds
Visibility: 9 miles , 14 km
Cloud details: Few Clouds 2600 ft
2019/06/27 07:53 KSGR 270753Z AUTO 11003KT 9SM FEW026 26/26 A3011 RMK AO2 SLP198 T02610256
K6R3 - Cleveland Muni, Texas, USA
Distance from station: NE 36mi, 58km
Updated: 06/27/2019 3:15am
Mist, Partly cloudy
Mist, Partly cloudy
 Wind from calm
Wind: Calm
Temperature: 73°F , 23°C
Dew Point: 73°F , 23°C
Humidity: 100%
Barometer: 30.14 inHg , 1020.7 hPa
Summary: Mist
Clouds: Partly cloudy
Visibility: 4 miles , 6 km
Cloud details: Partly cloudy 400 ft
Mostly cloudy 800 ft
Partly cloudy 1300 ft
2019/06/27 08:15 K6R3 270815Z AUTO 00000KT 4SM BR SCT004 BKN008 SCT013 23/23 A3014 RMK AO2 T02290229
 
KAXH - Houston/Southwst, Texas, USA
Distance from station: S 37mi, 60km
Updated: 06/27/2019 3:15am
Mist, Partly cloudy
Mist, Partly cloudy
 Wind from calm
Wind: Calm
Temperature: 75°F , 24°C
Dew Point: 75°F , 24°C
Humidity: 100%
Barometer: 30.12 inHg , 1020 hPa
Summary: Mist
Clouds: Partly cloudy
Visibility: 2 1/2 miles , 4 km
Cloud details: Partly cloudy 1400 ft
Partly cloudy 1900 ft
2019/06/27 08:15 KAXH 270815Z AUTO 00000KT 2 1/2SM BR SCT014 SCT019 24/24 A3012 RMK AO2 VIS 1V4 T02430243
KEFD - Houston/Ellingto, Texas, USA
Distance from station: SSE 37mi, 60km
Updated: 06/27/2019 2:50am
Mostly cloudy
Mostly cloudy
 Wind from calm
Wind: Calm
Temperature: 79°F , 26°C
Dew Point: 75°F , 24°C
Humidity: 89%
Barometer: 30.11 inHg , 1019.6 hPa
Clouds: Mostly cloudy
Visibility: 10 miles , 16 km
Cloud details: Few Clouds 1500 ft
Mostly cloudy 25000 ft
2019/06/27 07:50 KEFD 270750Z 00000KT 10SM FEW015 BKN250 26/24 A3011
 
KLVJ - Houston, Texas, USA
Distance from station: SSE 40mi, 64km
Updated: 06/27/2019 2:53am
Few Clouds
Few Clouds
 Wind from calm
Wind: Calm
Temperature: 79°F , 26°C
Dew Point: 75°F , 24°C
Humidity: 89%
Barometer: 30.13 inHg , 1020.3 hPa
Clouds: Few Clouds
Visibility: 7 miles , 11 km
Cloud details: Few Clouds 1500 ft
2019/06/27 07:53 KLVJ 270753Z AUTO 00000KT 7SM FEW015 26/24 A3013 RMK AO2 SLP202 T02560244
KUTS - Huntsville, Texas, USA
Distance from station: N 48mi, 78km
Updated: 06/27/2019 3:01am
Mostly cloudy
Mostly cloudy
 Wind from calm
Wind: Calm
Temperature: 73°F , 23°C
Dew Point: 72°F , 22°C
Humidity: 94%
Barometer: 30.14 inHg , 1020.7 hPa
Clouds: Mostly cloudy
Visibility: 8 miles , 13 km
Cloud details: Mostly cloudy 300 ft
Mostly cloudy 1900 ft
2019/06/27 08:01 KUTS 270801Z AUTO 00000KT 8SM BKN003 BKN019 23/22 A3014 RMK AO2 T02280217